High Hill, Texas
Current Conditions -  °F | °C
As of 8:10 AM on Thursday 18 Dec 2014 (Local Time) from K3T5 Reporting Station
Haze Haze  
Wind Chill: 53°   Ceiling: 200
Heat Index: 53°   Visibility: 2mi
Dew Point: 52°   Wind: 5mph
Humidity: 97%   Direction: 360°N
Pressure: 30.09"   Gusts: NA
Location:  29.7125°N, 96.9231°W
Report Text: K3T5 181410Z AUTO 36004KT 2SM BR OVC002 12/11 A3009 RMK AO2 T01150111
Loading
Personal Weather Stations






























Interactive Weather Map New forecast layout! Learn more

10-Day Weather Forecast

Advertisements
Track Severe Weather on mobile